Time;durP1;ratioP1;P1;durP2;ratioP2;P2;SDS_P1;SDS_P2;PMS_P1;PMS_P2;Temp;Humidity;BMP_temperature;BMP_pressure;BME280_temperature;BME280_humidity;BME280_pressure;Samples;Min_cycle;Max_cycle;Signal;HPM_P1;HPM_P2
2022/08/09 00:01:31;;;;;;;5.30;1.55;;;15.80;99.90;;;;;;5076112;27;20049;-68
2022/08/09 00:03:57;;;;;;;7.35;1.55;;;15.80;99.90;;;;;;5075143;27;20049;-68
2022/08/09 00:06:24;;;;;;;4.25;1.40;;;15.80;99.90;;;;;;5075343;27;20153;-68
2022/08/09 00:08:50;;;;;;;5.32;1.60;;;15.80;99.90;;;;;;5091077;27;20063;-68
2022/08/09 00:11:17;;;;;;;5.15;1.50;;;15.80;99.90;;;;;;5076561;27;20673;-68
2022/08/09 00:13:43;;;;;;;7.85;1.83;;;15.70;99.90;;;;;;5074397;27;20130;-68
2022/08/09 00:16:09;;;;;;;5.40;1.80;;;15.70;99.90;;;;;;5065468;27;20054;-68
2022/08/09 00:18:35;;;;;;;6.05;1.95;;;15.70;99.90;;;;;;5090786;27;20044;-68
2022/08/09 00:21:03;;;;;;;4.68;1.50;;;15.60;99.90;;;;;;5067451;27;20047;-68
2022/08/09 00:23:29;;;;;;;6.15;2.00;;;15.70;99.90;;;;;;5091225;27;20039;-68
2022/08/09 00:25:55;;;;;;;5.18;1.67;;;15.60;99.90;;;;;;5091530;27;20046;-68
2022/08/09 00:28:22;;;;;;;5.38;2.30;;;15.50;99.90;;;;;;5090694;27;20042;-68
2022/08/09 00:30:48;;;;;;;5.57;2.10;;;15.40;99.90;;;;;;5065258;27;20218;-69
2022/08/09 00:33:14;;;;;;;7.68;2.45;;;15.40;99.90;;;;;;5074441;27;20497;-68
2022/08/09 00:35:40;;;;;;;6.35;2.30;;;15.30;99.90;;;;;;5074399;27;20046;-68
2022/08/09 00:38:08;;;;;;;7.25;2.38;;;15.30;99.90;;;;;;5089649;27;20074;-68
2022/08/09 00:40:34;;;;;;;6.35;2.30;;;15.30;99.90;;;;;;5073847;27;20294;-68
2022/08/09 00:43:00;;;;;;;4.85;2.35;;;15.20;99.90;;;;;;5091139;27;20047;-68
2022/08/09 00:45:25;;;;;;;6.05;2.90;;;15.10;99.90;;;;;;5073957;27;20042;-68
2022/08/09 00:47:51;;;;;;;9.23;2.95;;;15.00;99.90;;;;;;5090759;27;20047;-68
2022/08/09 00:50:16;;;;;;;4.90;2.88;;;15.00;99.90;;;;;;5072650;27;20039;-68
2022/08/09 00:52:42;;;;;;;9.52;2.83;;;15.00;99.90;;;;;;5090382;27;20561;-68
2022/08/09 00:55:09;;;;;;;6.70;2.60;;;15.00;99.90;;;;;;5075696;27;20043;-69
2022/08/09 00:57:34;;;;;;;7.28;2.50;;;14.90;99.90;;;;;;5084697;27;20574;-68
2022/08/09 01:00:01;;;;;;;5.65;2.75;;;14.90;99.90;;;;;;5091316;27;20177;-68
2022/08/09 01:02:29;;;;;;;6.70;3.25;;;14.90;99.90;;;;;;5074456;27;20043;-69
2022/08/09 01:04:55;;;;;;;5.72;3.22;;;14.80;99.90;;;;;;5089688;27;20396;-68
2022/08/09 01:07:36;;;;;;;7.25;3.63;;;14.70;99.90;;;;;;5073680;27;20039;-68
2022/08/09 01:10:14;;;;;;;9.23;3.63;;;14.80;99.90;;;;;;5090621;27;20118;-68
2022/08/09 01:12:55;;;;;;;7.65;3.20;;;14.70;99.90;;;;;;5089603;28;21113;-68
2022/08/09 01:15:24;;;;;;;5.90;3.20;;;14.60;99.90;;;;;;5089649;27;20044;-68
2022/08/09 01:18:07;;;;;;;7.25;3.20;;;14.60;99.90;;;;;;5073500;28;20040;-69
2022/08/09 01:21:02;;;;;;;6.47;3.28;;;14.60;99.90;;;;;;5066532;28;20553;-69
2022/08/09 01:23:46;;;;;;;5.32;3.30;;;14.60;99.90;;;;;;5089688;28;20051;-69
2022/08/09 01:27:10;;;;;;;8.25;4.32;;;14.60;99.90;;;;;;5089579;28;20050;-69
2022/08/09 01:29:45;;;;;;;6.85;3.90;;;14.50;99.90;;;;;;5046369;28;20208;-68
2022/08/09 01:32:13;;;;;;;9.88;4.70;;;14.50;99.90;;;;;;5047223;28;20464;-68
2022/08/09 01:34:42;;;;;;;6.78;4.78;;;14.50;99.90;;;;;;5075625;28;20055;-68
2022/08/09 01:37:11;;;;;;;7.45;4.00;;;14.50;99.90;;;;;;5073757;28;20115;-68
2022/08/09 01:39:39;;;;;;;7.97;4.82;;;14.40;99.90;;;;;;5089645;28;20087;-68
2022/08/09 01:42:07;;;;;;;7.43;4.78;;;14.40;99.90;;;;;;5071651;28;20247;-68
2022/08/09 01:44:33;;;;;;;8.10;4.82;;;14.40;99.90;;;;;;5056661;28;20290;-68
2022/08/09 01:47:01;;;;;;;6.60;4.38;;;14.50;99.90;;;;;;5089995;28;20739;-69
2022/08/09 01:49:31;;;;;;;7.88;4.30;;;14.40;99.90;;;;;;5092014;27;20187;-69
2022/08/09 01:52:08;;;;;;;9.52;4.80;;;14.30;99.90;;;;;;5094388;27;20047;-68
2022/08/09 01:54:55;;;;;;;6.00;4.05;;;14.30;99.90;;;;;;5094082;27;20046;-68
2022/08/09 01:57:26;;;;;;;9.55;4.68;;;14.40;99.90;;;;;;5095411;27;20488;-68
2022/08/09 01:59:54;;;;;;;7.85;5.00;;;14.30;99.90;;;;;;5092830;27;20728;-68
2022/08/09 02:02:27;;;;;;;7.85;3.92;;;14.40;99.90;;;;;;5092490;27;20661;-68
2022/08/09 02:04:55;;;;;;;10.38;5.15;;;14.30;99.90;;;;;;5093598;27;20039;-68
2022/08/09 02:07:25;;;;;;;9.88;4.47;;;14.20;99.90;;;;;;5058261;27;20509;-69
2022/08/09 02:09:58;;;;;;;9.63;4.97;;;14.20;99.90;;;;;;5094991;27;20039;-68
2022/08/09 02:12:24;;;;;;;;;;;14.20;99.90;;;;;;5093042;27;20042;-68
2022/08/09 02:14:53;;;;;;;9.40;4.55;;;14.20;99.90;;;;;;5093586;27;19919;-67
2022/08/09 02:17:23;;;;;;;8.15;3.70;;;14.10;99.90;;;;;;5092043;27;20047;-68
2022/08/09 02:19:49;;;;;;;10.75;5.07;;;14.10;99.90;;;;;;5091524;27;20240;-68
2022/08/09 02:22:42;;;;;;;9.60;5.32;;;14.10;99.90;;;;;;5067782;27;20433;-68
2022/08/09 02:25:23;;;;;;;10.95;4.95;;;14.00;99.90;;;;;;5092954;27;20029;-68
2022/08/09 02:28:01;;;;;;;11.18;4.95;;;14.10;99.90;;;;;;5084141;27;20290;-68
2022/08/09 02:30:34;;;;;;;10.68;4.68;;;14.10;99.90;;;;;;5075221;27;20040;-68
2022/08/09 02:33:01;;;;;;;8.23;4.63;;;14.00;99.90;;;;;;5093595;27;20047;-68
2022/08/09 02:35:28;;;;;;;11.23;5.30;;;14.00;99.90;;;;;;5093687;27;20066;-68
2022/08/09 02:37:57;;;;;;;10.07;5.43;;;14.00;99.90;;;;;;5093821;27;20043;-68
2022/08/09 02:40:24;;;;;;;10.15;5.57;;;14.00;99.90;;;;;;5093047;27;20193;-68
2022/08/09 02:42:53;;;;;;;7.47;5.30;;;14.00;99.90;;;;;;5092353;27;20405;-68
2022/08/09 02:45:25;;;;;;;7.38;5.07;;;13.90;99.90;;;;;;5092708;27;20273;-68
2022/08/09 02:47:53;;;;;;;7.80;4.47;;;13.80;99.90;;;;;;5092670;27;20035;-68
2022/08/09 02:50:27;;;;;;;8.55;4.78;;;13.80;99.90;;;;;;5093371;27;20041;-68
2022/08/09 02:52:59;;;;;;;8.90;4.65;;;13.80;99.90;;;;;;5076430;27;20129;-68
2022/08/09 02:55:26;;;;;;;9.50;5.28;;;13.70;99.90;;;;;;5092678;27;20568;-68
2022/08/09 02:57:53;;;;;;;8.23;5.25;;;13.80;99.90;;;;;;5091060;27;20561;-68
2022/08/09 03:00:21;;;;;;;9.13;5.40;;;13.80;99.90;;;;;;5093613;27;20051;-69
2022/08/09 03:02:51;;;;;;;5.65;4.20;;;13.80;99.90;;;;;;5092092;27;20043;-69
2022/08/09 03:05:18;;;;;;;9.07;5.07;;;13.80;99.90;;;;;;5091755;27;20057;-69
2022/08/09 03:07:45;;;;;;;11.73;5.82;;;13.70;99.90;;;;;;5090820;27;20035;-69
2022/08/09 03:10:12;;;;;;;7.95;5.22;;;13.80;99.90;;;;;;5092486;27;20027;-69
2022/08/09 03:12:39;;;;;;;8.32;5.72;;;13.80;99.90;;;;;;5065635;27;20051;-69
2022/08/09 03:15:06;;;;;;;6.93;4.97;;;13.80;99.90;;;;;;5093055;27;20172;-69
2022/08/09 03:17:35;;;;;;;8.60;4.82;;;13.70;99.90;;;;;;5075543;27;20707;-69
2022/08/09 03:20:02;;;;;;;6.75;4.57;;;13.70;99.90;;;;;;5075641;27;20131;-69
2022/08/09 03:22:30;;;;;;;7.07;4.97;;;13.70;99.90;;;;;;5075873;27;20081;-69
2022/08/09 03:24:57;;;;;;;7.50;5.40;;;13.70;99.90;;;;;;5076701;27;20683;-69
2022/08/09 03:27:24;;;;;;;11.73;5.65;;;13.60;99.90;;;;;;5077759;27;20043;-69
2022/08/09 03:29:51;;;;;;;7.85;5.15;;;13.60;99.90;;;;;;5094224;27;20050;-69
2022/08/09 03:32:17;;;;;;;10.10;5.15;;;13.60;99.90;;;;;;5077330;27;20039;-68
2022/08/09 03:34:43;;;;;;;7.63;4.93;;;13.70;99.90;;;;;;5065835;27;20051;-68
2022/08/09 03:37:09;;;;;;;6.93;4.72;;;13.60;99.90;;;;;;5095007;27;20464;-68
2022/08/09 03:39:34;;;;;;;9.57;5.43;;;13.60;99.90;;;;;;5078895;27;20043;-69
2022/08/09 03:42:00;;;;;;;10.55;5.43;;;13.60;99.90;;;;;;5094391;27;20497;-67
2022/08/09 03:44:28;;;;;;;9.15;5.45;;;13.60;99.90;;;;;;5092278;27;20042;-68
2022/08/09 03:46:54;;;;;;;10.85;5.88;;;13.70;99.90;;;;;;5093178;27;20138;-69
2022/08/09 03:49:26;;;;;;;10.82;5.70;;;13.80;99.90;;;;;;5094809;27;20740;-68
2022/08/09 03:52:00;;;;;;;7.80;5.32;;;13.80;99.90;;;;;;5092320;27;20107;-69
2022/08/09 03:54:31;;;;;;;11.13;5.82;;;13.70;99.90;;;;;;5094569;27;20051;-68
2022/08/09 03:57:00;;;;;;;8.73;5.68;;;13.70;99.90;;;;;;5091843;27;20043;-69
2022/08/09 03:59:26;;;;;;;8.05;5.55;;;13.70;99.90;;;;;;5093309;27;20149;-69
2022/08/09 04:01:55;;;;;;;13.50;6.78;;;13.70;99.90;;;;;;5092261;27;20576;-69
2022/08/09 04:04:21;;;;;;;10.57;5.90;;;13.70;99.90;;;;;;5093853;27;20057;-69
2022/08/09 04:06:47;;;;;;;15.27;5.60;;;13.80;99.90;;;;;;5075540;27;20053;-69
2022/08/09 04:09:12;;;;;;;7.47;5.82;;;13.70;99.90;;;;;;5077234;27;20435;-69
2022/08/09 04:12:05;;;;;;;9.40;6.05;;;13.70;99.90;;;;;;5093009;27;20042;-69
2022/08/09 04:14:31;;;;;;;10.75;5.35;;;13.70;99.90;;;;;;5071148;27;20732;-69
2022/08/09 04:16:56;;;;;;;7.07;6.35;;;13.70;99.90;;;;;;5092950;27;20043;-68
2022/08/09 04:19:22;;;;;;;8.27;6.38;;;13.70;99.90;;;;;;5075971;27;20067;-68
2022/08/09 04:21:48;;;;;;;9.90;5.97;;;13.80;99.90;;;;;;5075951;27;20035;-68
2022/08/09 04:24:14;;;;;;;8.90;5.47;;;13.70;99.90;;;;;;5092965;27;20181;-68
2022/08/09 04:26:39;;;;;;;10.77;6.03;;;13.70;99.90;;;;;;5092729;27;20098;-68
2022/08/09 04:29:05;;;;;;;8.65;5.00;;;13.80;99.90;;;;;;5065413;27;20047;-68
2022/08/09 04:31:31;;;;;;;6.82;4.95;;;13.70;99.90;;;;;;5060046;27;20380;-68
2022/08/09 04:33:57;;;;;;;11.35;5.63;;;13.80;99.90;;;;;;5092988;27;20174;-68
2022/08/09 04:36:27;;;;;;;7.10;5.47;;;13.80;99.90;;;;;;5075946;27;20134;-69
2022/08/09 04:38:54;;;;;;;7.90;5.75;;;13.90;99.90;;;;;;5071084;27;20677;-68
2022/08/09 04:41:21;;;;;;;10.18;5.55;;;13.90;99.90;;;;;;5092716;27;20358;-68
2022/08/09 04:43:47;;;;;;;8.95;5.05;;;13.90;99.90;;;;;;5077973;27;20302;-68
2022/08/09 04:46:13;;;;;;;6.82;4.55;;;14.00;99.90;;;;;;5092107;27;20501;-69
2022/08/09 04:48:38;;;;;;;8.13;4.88;;;14.20;99.90;;;;;;5092566;27;20483;-68
2022/08/09 04:51:04;;;;;;;7.13;3.50;;;14.20;99.90;;;;;;5068984;27;20339;-68
2022/08/09 04:53:30;;;;;;;7.72;4.95;;;14.50;99.90;;;;;;5075871;27;20262;-68
2022/08/09 04:55:55;;;;;;;7.68;3.13;;;14.60;99.90;;;;;;5092633;27;20035;-68
2022/08/09 04:58:21;;;;;;;6.53;2.78;;;14.80;99.90;;;;;;5092691;27;20319;-68
2022/08/09 05:00:47;;;;;;;6.10;2.88;;;14.80;99.90;;;;;;5072131;28;20158;-68
2022/08/09 05:03:12;;;;;;;6.22;3.45;;;14.90;99.90;;;;;;5072046;28;20036;-68
2022/08/09 05:05:38;;;;;;;3.38;2.47;;;15.20;99.90;;;;;;5088535;28;20031;-69
2022/08/09 05:08:04;;;;;;;4.43;1.77;;;15.30;99.90;;;;;;5089150;28;20414;-67
2022/08/09 05:10:30;;;;;;;3.67;2.08;;;15.40;99.90;;;;;;5073089;28;20046;-68
2022/08/09 05:12:55;;;;;;;5.28;1.52;;;15.40;99.90;;;;;;5072058;28;20050;-68
2022/08/09 05:15:23;;;;;;;4.13;1.70;;;15.50;99.90;;;;;;5089902;28;20134;-68
2022/08/09 05:17:49;;;;;;;5.97;1.83;;;15.60;99.90;;;;;;5090498;28;20046;-68
2022/08/09 05:20:15;;;;;;;2.80;1.15;;;15.70;99.90;;;;;;5088484;28;20499;-68
2022/08/09 05:22:41;;;;;;;5.13;1.63;;;15.60;99.90;;;;;;5089109;28;20048;-68
2022/08/09 05:25:07;;;;;;;4.95;0.95;;;15.70;99.90;;;;;;5088181;28;20039;-68
2022/08/09 05:27:32;;;;;;;4.32;0.98;;;15.90;99.90;;;;;;5089615;28;20602;-68
2022/08/09 05:30:02;;;;;;;4.95;1.33;;;16.00;99.90;;;;;;5072870;28;20054;-67
2022/08/09 05:32:27;;;;;;;4.18;1.10;;;16.00;99.90;;;;;;5089739;28;20040;-67
2022/08/09 05:34:53;;;;;;;3.80;0.85;;;16.10;99.90;;;;;;5065013;28;20053;-68
2022/08/09 05:37:19;;;;;;;4.75;1.08;;;16.50;99.90;;;;;;5072140;28;20108;-67
2022/08/09 05:39:44;;;;;;;2.50;0.60;;;16.90;99.90;;;;;;5108885;28;20243;-67
2022/08/09 05:42:14;;;;;;;2.60;0.90;;;17.20;99.90;;;;;;5089023;28;20043;-67
2022/08/09 05:44:40;;;;;;;5.20;0.52;;;17.60;99.90;;;;;;5091870;28;20036;-68
2022/08/09 05:47:05;;;;;;;2.15;0.40;;;17.80;99.90;;;;;;5090688;28;20384;-67
2022/08/09 05:49:32;;;;;;;2.17;0.40;;;18.00;99.90;;;;;;5066015;28;20477;-67
2022/08/09 05:51:57;;;;;;;4.80;0.50;;;18.30;99.90;;;;;;5069921;28;20046;-67
2022/08/09 05:54:23;;;;;;;3.95;0.60;;;18.40;99.90;;;;;;5089044;28;20044;-68
2022/08/09 05:56:49;;;;;;;3.50;0.40;;;18.50;99.90;;;;;;5076390;28;20059;-67
2022/08/09 05:59:15;;;;;;;2.78;0.40;;;18.70;99.90;;;;;;5093897;28;20086;-67
2022/08/09 06:01:41;;;;;;;3.58;0.50;;;18.80;99.90;;;;;;5091724;28;20458;-69
2022/08/09 06:04:07;;;;;;;1.65;0.30;;;19.00;99.90;;;;;;5073445;28;20040;-67
2022/08/09 06:06:33;;;;;;;2.15;0.50;;;19.10;99.90;;;;;;5090763;28;20510;-69
2022/08/09 06:08:59;;;;;;;2.38;0.30;;;19.20;99.90;;;;;;5065679;28;20043;-68
2022/08/09 06:11:24;;;;;;;2.13;0.47;;;19.40;99.90;;;;;;5074114;28;20043;-68
2022/08/09 06:13:50;;;;;;;1.58;0.32;;;19.50;99.90;;;;;;5057277;28;20208;-68
2022/08/09 06:16:16;;;;;;;1.98;0.30;;;19.50;99.90;;;;;;5089672;28;20618;-68
2022/08/09 06:18:42;;;;;;;2.13;0.20;;;19.60;99.90;;;;;;5065925;28;20374;-68
2022/08/09 06:21:08;;;;;;;2.78;0.38;;;19.70;99.90;;;;;;5088687;28;20066;-68
2022/08/09 06:23:33;;;;;;;2.05;0.38;;;19.80;99.90;;;;;;5072692;28;20036;-68
2022/08/09 06:25:59;;;;;;;1.50;0.30;;;19.90;99.90;;;;;;5073495;28;20129;-67
2022/08/09 06:28:25;;;;;;;1.95;0.25;;;20.00;99.90;;;;;;5075722;28;20112;-69
2022/08/09 06:30:50;;;;;;;1.05;0.40;;;20.00;99.90;;;;;;5062891;28;20490;-67
2022/08/09 06:33:16;;;;;;;1.85;0.30;;;20.00;99.90;;;;;;5091514;28;20075;-67
2022/08/09 06:35:42;;;;;;;1.77;0.20;;;20.20;99.90;;;;;;5090791;28;20040;-68
2022/08/09 06:38:07;;;;;;;1.75;0.20;;;20.20;99.90;;;;;;5094007;28;20103;-67
2022/08/09 06:40:33;;;;;;;1.33;0.20;;;20.30;99.90;;;;;;5095656;28;20055;-69
2022/08/09 06:43:02;;;;;;;1.50;0.20;;;20.50;99.90;;;;;;5096122;28;20131;-67
2022/08/09 06:45:28;;;;;;;1.17;0.20;;;20.60;99.90;;;;;;5079117;28;20696;-68
2022/08/09 06:47:53;;;;;;;1.13;0.30;;;20.70;99.90;;;;;;5093722;28;20038;-68
2022/08/09 06:50:19;;;;;;;1.27;0.20;;;20.80;99.90;;;;;;5074686;28;20570;-68
2022/08/09 06:52:46;;;;;;;1.48;0.10;;;20.80;99.90;;;;;;5058040;28;20049;-68
2022/08/09 06:55:20;;;;;;;0.98;0.20;;;20.80;99.90;;;;;;5074681;28;20035;-69
2022/08/09 06:57:45;;;;;;;1.38;0.20;;;20.90;99.90;;;;;;5094951;28;20051;-69
2022/08/09 07:00:13;;;;;;;1.27;0.20;;;21.00;99.90;;;;;;5092973;28;20090;-69
2022/08/09 07:02:39;;;;;;;2.72;0.30;;;21.10;99.90;;;;;;5093013;28;20096;-68
2022/08/09 07:05:05;;;;;;;1.25;0.32;;;21.20;99.90;;;;;;5093563;28;21390;-70
2022/08/09 07:07:31;;;;;;;1.40;0.20;;;21.20;99.90;;;;;;5064756;28;20269;-69
2022/08/09 07:09:57;;;;;;;2.38;0.20;;;21.20;99.90;;;;;;5093906;28;20535;-67
2022/08/09 07:12:23;;;;;;;1.40;0.20;;;21.40;99.90;;;;;;5073699;28;20525;-69
2022/08/09 07:14:49;;;;;;;2.20;0.20;;;21.40;99.90;;;;;;5066489;28;20122;-67
2022/08/09 07:17:15;;;;;;;0.88;0.20;;;21.30;99.90;;;;;;5092946;28;20042;-67
2022/08/09 07:19:41;;;;;;;2.63;0.30;;;21.50;99.90;;;;;;5092929;28;20143;-67
2022/08/09 07:22:07;;;;;;;2.63;0.20;;;21.50;99.90;;;;;;5074939;28;20051;-68
2022/08/09 07:24:33;;;;;;;0.90;0.10;;;21.50;99.90;;;;;;5077503;28;20046;-66
2022/08/09 07:27:00;;;;;;;2.70;0.10;;;21.60;99.90;;;;;;5092695;28;20548;-68
2022/08/09 07:29:27;;;;;;;2.25;0.20;;;21.60;99.90;;;;;;5070717;28;20510;-69
2022/08/09 07:31:54;;;;;;;1.60;0.10;;;21.70;99.90;;;;;;5075214;28;20129;-67
2022/08/09 07:34:20;;;;;;;1.23;0.20;;;21.80;99.90;;;;;;5091696;28;20035;-67
2022/08/09 07:36:46;;;;;;;3.22;0.20;;;21.70;99.90;;;;;;5092321;28;20040;-68
2022/08/09 07:39:12;;;;;;;1.40;0.10;;;21.90;99.90;;;;;;5093060;28;20552;-67
2022/08/09 07:41:38;;;;;;;1.10;0.15;;;21.90;99.90;;;;;;5094322;28;20046;-68
2022/08/09 07:44:04;;;;;;;1.35;0.10;;;21.90;99.90;;;;;;5094100;28;20043;-68
2022/08/09 07:46:29;;;;;;;1.25;0.15;;;22.20;99.90;;;;;;5077211;28;20471;-68
2022/08/09 07:48:55;;;;;;;2.40;0.20;;;22.20;99.90;;;;;;5077360;28;20083;-69
2022/08/09 07:51:21;;;;;;;1.67;0.20;;;22.20;99.90;;;;;;5076079;28;20043;-68
2022/08/09 07:53:51;;;;;;;0.52;0.10;;;22.40;99.90;;;;;;5095794;28;20108;-68
2022/08/09 07:56:17;;;;;;;0.60;0.13;;;22.50;99.90;;;;;;5077835;28;20054;-68
2022/08/09 07:58:42;;;;;;;2.05;0.20;;;22.60;99.90;;;;;;5078455;27;20221;-69
2022/08/09 08:01:08;;;;;;;1.23;0.10;;;22.70;99.90;;;;;;5096035;27;20163;-70
2022/08/09 08:03:34;;;;;;;1.65;0.20;;;22.90;99.90;;;;;;5079201;27;20180;-69
2022/08/09 08:05:59;;;;;;;0.50;0.10;;;22.70;99.90;;;;;;5096654;27;20141;-68
2022/08/09 08:08:25;;;;;;;0.93;0.10;;;22.80;99.90;;;;;;5096150;27;20054;-69
2022/08/09 08:10:51;;;;;;;1.42;0.25;;;23.00;99.90;;;;;;5113774;27;20046;-69
2022/08/09 08:13:17;;;;;;;3.83;0.20;;;23.00;99.90;;;;;;5115233;27;20039;-69
2022/08/09 08:15:43;;;;;;;2.15;0.20;;;23.40;99.90;;;;;;5079690;27;20095;-67
2022/08/09 08:18:08;;;;;;;2.58;0.20;;;23.50;99.90;;;;;;5079474;27;20082;-68
2022/08/09 08:20:34;;;;;;;1.25;0.10;;;23.80;99.90;;;;;;5063729;27;20063;-68
2022/08/09 08:23:03;;;;;;;0.93;0.00;;;23.80;99.90;;;;;;5096879;27;20465;-68
2022/08/09 08:25:28;;;;;;;0.50;0.10;;;23.90;99.90;;;;;;5097068;27;20726;-68
2022/08/09 08:27:54;;;;;;;0.60;0.10;;;23.80;99.90;;;;;;5062498;27;20248;-68
2022/08/09 08:30:20;;;;;;;0.35;0.10;;;23.90;99.90;;;;;;5080171;27;20380;-67
2022/08/09 08:32:46;;;;;;;0.60;0.10;;;24.00;99.90;;;;;;5096026;27;20668;-69
2022/08/09 08:35:12;;;;;;;1.15;0.32;;;24.10;99.90;;;;;;5080198;27;20486;-68
2022/08/09 08:37:38;;;;;;;0.90;0.10;;;24.20;99.90;;;;;;5097090;27;20058;-69
2022/08/09 08:40:04;;;;;;;1.08;0.08;;;24.10;99.90;;;;;;5064400;27;20042;-68
2022/08/09 08:42:31;;;;;;;0.60;0.10;;;23.80;99.90;;;;;;5080291;27;20198;-69
2022/08/09 08:44:58;;;;;;;1.48;0.10;;;23.10;99.90;;;;;;5063056;27;20045;-69
2022/08/09 08:47:29;;;;;;;0.50;0.03;;;22.60;99.90;;;;;;5062736;27;20751;-68
2022/08/09 08:49:56;;;;;;;0.28;0.10;;;22.10;99.90;;;;;;5096012;27;20235;-68
2022/08/09 08:52:26;;;;;;;0.40;0.10;;;21.90;99.90;;;;;;5096289;27;20046;-69
2022/08/09 08:54:57;;;;;;;1.75;0.00;;;22.40;99.90;;;;;;5095878;27;20490;-69
2022/08/09 08:57:24;;;;;;;1.95;0.10;;;23.10;99.90;;;;;;5095578;27;20103;-69
2022/08/09 08:59:51;;;;;;;0.35;0.10;;;23.50;99.90;;;;;;5074568;28;20073;-69
2022/08/09 09:02:25;;;;;;;0.40;0.00;;;24.00;99.90;;;;;;5059177;28;20043;-70
2022/08/09 09:04:57;;;;;;;0.30;0.10;;;24.00;99.90;;;;;;5093166;28;20075;-69
2022/08/09 09:07:24;;;;;;;1.52;0.10;;;24.30;99.90;;;;;;5092354;28;20044;-69
2022/08/09 09:09:52;;;;;;;0.30;0.00;;;24.40;99.90;;;;;;5076030;28;20043;-69
2022/08/09 09:12:22;;;;;;;0.70;0.10;;;24.20;99.90;;;;;;5059073;28;20105;-69
2022/08/09 09:14:50;;;;;;;0.95;0.10;;;24.20;99.90;;;;;;5075912;28;20032;-69
2022/08/09 09:17:16;;;;;;;0.95;0.10;;;23.80;99.90;;;;;;5093047;28;20081;-68
2022/08/09 09:19:43;;;;;;;1.15;0.00;;;23.80;99.90;;;;;;5075982;28;20047;-68
2022/08/09 09:22:12;;;;;;;1.42;0.10;;;23.80;99.90;;;;;;5075588;28;20043;-70
2022/08/09 09:24:53;;;;;;;0.68;0.00;;;23.80;99.90;;;;;;5091376;28;20186;-68
2022/08/09 09:27:25;;;;;;;0.88;0.00;;;24.10;99.90;;;;;;5075827;28;20521;-69
2022/08/09 09:29:54;;;;;;;1.05;0.10;;;24.50;99.90;;;;;;5075515;28;20381;-68
2022/08/09 09:32:23;;;;;;;1.10;0.10;;;24.40;99.90;;;;;;5076169;28;20497;-69
2022/08/09 09:35:08;;;;;;;0.63;0.10;;;24.60;99.90;;;;;;5075430;28;20074;-68
2022/08/09 09:37:34;;;;;;;0.55;0.00;;;25.00;99.90;;;;;;5093509;28;20042;-68
2022/08/09 09:40:00;;;;;;;0.93;0.10;;;25.10;99.90;;;;;;5094447;28;20537;-69
2022/08/09 09:42:28;;;;;;;0.20;0.10;;;25.20;99.90;;;;;;5093289;28;20450;-70
2022/08/09 09:44:58;;;;;;;0.52;0.10;;;25.50;99.90;;;;;;5077002;28;20071;-68
2022/08/09 09:47:25;;;;;;;1.00;0.10;;;25.30;99.90;;;;;;5076436;28;20664;-69
2022/08/09 09:49:53;;;;;;;0.95;0.10;;;25.20;99.90;;;;;;5060164;28;20061;-68
2022/08/09 09:52:19;;;;;;;0.63;0.10;;;25.50;99.90;;;;;;5077782;28;20108;-68
2022/08/09 09:54:46;;;;;;;0.50;0.08;;;25.50;99.90;;;;;;5060808;28;20856;-69
2022/08/09 09:57:23;;;;;;;1.00;0.10;;;25.90;99.90;;;;;;5076151;28;20040;-69
2022/08/09 09:59:51;;;;;;;0.80;0.10;;;25.80;99.90;;;;;;5093647;28;20063;-68
2022/08/09 10:02:19;;;;;;;0.55;0.03;;;26.00;99.90;;;;;;5094248;28;20441;-68
2022/08/09 10:05:00;;;;;;;0.20;0.10;;;26.30;99.90;;;;;;5094616;28;20498;-69
2022/08/09 10:07:27;;;;;;;0.95;0.20;;;26.00;99.90;;;;;;5061103;28;20130;-68
2022/08/09 10:09:55;;;;;;;0.52;0.10;;;26.10;99.90;;;;;;5089983;28;20032;-69
2022/08/09 10:12:31;;;;;;;0.40;0.10;;;26.10;99.90;;;;;;5095145;28;20046;-68
2022/08/09 10:15:03;;;;;;;0.47;0.10;;;26.10;99.90;;;;;;5094251;28;20466;-68
2022/08/09 10:17:34;;;;;;;0.60;0.00;;;25.80;99.90;;;;;;5094259;28;20130;-69
2022/08/09 10:20:04;;;;;;;1.23;0.00;;;26.00;99.90;;;;;;5093722;28;20047;-69
2022/08/09 10:22:35;;;;;;;1.73;0.00;;;26.00;99.90;;;;;;5094643;28;20305;-68
2022/08/09 10:25:07;;;;;;;1.05;0.10;;;26.00;99.90;;;;;;5095925;28;20496;-68
2022/08/09 10:27:33;;;;;;;0.55;0.10;;;26.30;99.90;;;;;;5110960;27;20327;-68
2022/08/09 10:30:02;;;;;;;0.43;0.00;;;26.50;99.90;;;;;;5093943;28;20496;-67
2022/08/09 10:32:28;;;;;;;0.80;0.10;;;26.50;99.90;;;;;;5093857;28;20118;-67
2022/08/09 10:34:55;;;;;;;0.70;0.00;;;26.40;99.90;;;;;;5094094;28;20089;-67
2022/08/09 10:37:21;;;;;;;1.17;0.10;;;26.30;99.90;;;;;;5093800;28;20051;-69
2022/08/09 10:39:48;;;;;;;1.55;0.03;;;26.40;99.90;;;;;;5093535;28;20079;-68
2022/08/09 10:42:14;;;;;;;0.63;0.00;;;26.30;99.90;;;;;;5093557;28;20078;-68
2022/08/09 10:44:43;;;;;;;0.73;0.20;;;26.50;99.90;;;;;;5095253;28;20039;-68
2022/08/09 10:47:28;;;;;;;1.17;0.10;;;26.70;99.90;;;;;;5094164;28;20592;-68
2022/08/09 10:50:18;;;;;;;0.17;0.00;;;27.10;99.90;;;;;;5093304;28;20067;-69
2022/08/09 10:53:15;;;;;;;0.90;0.00;;;27.00;99.90;;;;;;5076681;28;20281;-68
2022/08/09 10:55:41;;;;;;;0.22;0.00;;;27.20;99.90;;;;;;5093276;28;20309;-68
2022/08/09 10:58:27;;;;;;;0.40;0.00;;;27.30;99.90;;;;;;5059491;28;20052;-67
2022/08/09 11:00:53;;;;;;;1.10;0.30;;;27.30;99.90;;;;;;5094118;28;20061;-68
2022/08/09 11:03:24;;;;;;;0.90;0.10;;;27.30;99.90;;;;;;5042890;28;20603;-67
2022/08/09 11:06:14;;;;;;;1.20;0.10;;;27.50;98.60;;;;;;5093200;28;20120;-67
2022/08/09 11:08:42;;;;;;;0.68;0.00;;;27.40;98.10;;;;;;5093985;28;20085;-67
2022/08/09 11:11:08;;;;;;;1.30;0.10;;;27.40;97.50;;;;;;5082427;28;20075;-69
2022/08/09 11:13:34;;;;;;;0.43;0.10;;;27.20;97.30;;;;;;5098465;28;20120;-71
2022/08/09 11:16:33;;;;;;;0.95;0.10;;;27.50;97.40;;;;;;5081192;28;20108;-70
2022/08/09 11:18:58;;;;;;;1.70;0.00;;;27.20;95.70;;;;;;5099147;28;20415;-69
2022/08/09 11:21:49;;;;;;;0.25;0.00;;;27.30;95.30;;;;;;5097825;28;20059;-70
2022/08/09 11:24:16;;;;;;;0.55;0.00;;;26.90;96.30;;;;;;5097014;28;20043;-69
2022/08/09 11:26:43;;;;;;;0.38;0.00;;;27.00;96.40;;;;;;5097906;28;20047;-69
2022/08/09 11:29:47;;;;;;;0.17;0.00;;;27.10;95.00;;;;;;5079295;28;20243;-68
2022/08/09 11:32:39;;;;;;;0.22;0.00;;;27.10;94.20;;;;;;5081037;28;20039;-68
2022/08/09 11:35:07;;;;;;;0.60;0.10;;;27.00;94.50;;;;;;5096401;28;20055;-68
2022/08/09 11:37:34;;;;;;;0.20;0.00;;;27.30;94.10;;;;;;5063413;28;20335;-68
2022/08/09 11:40:03;;;;;;;0.35;0.05;;;27.40;93.80;;;;;;5079908;28;20408;-69
2022/08/09 11:42:50;;;;;;;0.43;0.03;;;27.30;94.20;;;;;;5080173;28;20545;-69
2022/08/09 11:45:21;;;;;;;0.40;0.00;;;27.00;94.00;;;;;;5079611;28;20730;-68
2022/08/09 11:47:49;;;;;;;0.28;0.00;;;27.10;93.80;;;;;;5096850;28;20038;-68
2022/08/09 11:50:15;;;;;;;0.60;0.00;;;26.80;93.30;;;;;;5097007;28;20047;-69
2022/08/09 11:52:59;;;;;;;1.98;0.03;;;27.20;93.60;;;;;;5096804;28;20050;-69
2022/08/09 11:55:33;;;;;;;0.20;0.00;;;27.50;95.00;;;;;;5097078;28;20588;-68
2022/08/09 11:58:27;;;;;;;0.47;0.00;;;27.30;95.50;;;;;;5097059;28;20070;-69
2022/08/09 12:00:55;;;;;;;0.17;0.00;;;27.20;94.00;;;;;;5095995;28;20047;-68
2022/08/09 12:03:24;;;;;;;1.08;0.00;;;27.00;96.30;;;;;;5096538;28;20258;-68
2022/08/09 12:05:52;;;;;;;0.13;0.00;;;26.90;91.10;;;;;;5079495;28;20233;-69
2022/08/09 12:08:19;;;;;;;0.70;0.10;;;26.70;91.20;;;;;;5097175;28;20532;-69
2022/08/09 12:10:51;;;;;;;0.35;0.00;;;26.80;92.50;;;;;;5095903;28;20048;-68
2022/08/09 12:13:46;;;;;;;;;;;26.80;93.00;;;;;;5079599;28;20417;-68
2022/08/09 12:16:17;;;;;;;0.43;0.00;;;26.50;93.60;;;;;;5087882;28;19919;-69
2022/08/09 12:18:46;;;;;;;1.58;0.00;;;26.80;94.10;;;;;;5096394;28;20039;-68
2022/08/09 12:21:13;;;;;;;1.25;0.10;;;26.80;94.00;;;;;;5077888;28;20516;-69
2022/08/09 12:23:46;;;;;;;0.40;0.03;;;26.90;95.80;;;;;;5096505;28;20039;-69
2022/08/09 12:26:13;;;;;;;0.40;0.00;;;27.20;95.00;;;;;;5079808;28;20163;-69
2022/08/09 12:28:46;;;;;;;0.55;0.10;;;26.80;94.20;;;;;;5061860;28;20290;-67
2022/08/09 12:31:21;;;;;;;0.63;0.10;;;27.20;96.00;;;;;;5095148;28;20728;-70
2022/08/09 12:33:48;;;;;;;1.88;0.03;;;27.10;93.40;;;;;;5095335;28;20118;-68
2022/08/09 12:36:14;;;;;;;0.55;0.00;;;27.10;93.90;;;;;;5095506;28;20040;-69
2022/08/09 12:38:40;;;;;;;1.42;0.10;;;27.10;95.40;;;;;;5061855;28;20044;-68
2022/08/09 12:41:06;;;;;;;0.22;0.03;;;27.30;95.30;;;;;;5096389;28;20050;-69
2022/08/09 12:43:32;;;;;;;2.00;0.00;;;27.40;94.70;;;;;;5096797;28;20118;-68
2022/08/09 12:45:58;;;;;;;1.95;0.00;;;27.40;91.50;;;;;;5096028;28;20067;-68
2022/08/09 12:48:27;;;;;;;0.22;0.00;;;27.20;92.00;;;;;;5072880;28;20044;-69
2022/08/09 12:50:53;;;;;;;1.45;0.00;;;27.10;91.20;;;;;;5095473;28;20152;-69
2022/08/09 12:53:23;;;;;;;0.55;0.00;;;27.00;89.60;;;;;;5079234;28;20504;-69
2022/08/09 12:55:49;;;;;;;2.00;0.10;;;26.90;89.40;;;;;;5093473;28;20472;-70